sensor_id;sensor_type;location;lat;lon;timestamp;P1;durP1;ratioP1;P2;durP2;ratioP2
44276;SDS011;29973;43.742;1.236;2022-08-07T00:02:04;5.25;;;2.58;;
44276;SDS011;29973;43.742;1.236;2022-08-07T00:04:29;4.55;;;2.58;;
44276;SDS011;29973;43.742;1.236;2022-08-07T00:06:55;5.82;;;2.83;;
44276;SDS011;29973;43.742;1.236;2022-08-07T00:09:21;3.83;;;2.25;;
44276;SDS011;29973;43.742;1.236;2022-08-07T00:11:47;3.30;;;1.98;;
44276;SDS011;29973;43.742;1.236;2022-08-07T00:14:12;4.45;;;2.30;;
44276;SDS011;29973;43.742;1.236;2022-08-07T00:16:38;3.92;;;2.47;;
44276;SDS011;29973;43.742;1.236;2022-08-07T00:19:04;4.15;;;2.70;;
44276;SDS011;29973;43.742;1.236;2022-08-07T00:21:29;5.00;;;2.10;;
44276;SDS011;29973;43.742;1.236;2022-08-07T00:23:55;3.78;;;2.03;;
44276;SDS011;29973;43.742;1.236;2022-08-07T00:26:21;4.68;;;2.22;;
44276;SDS011;29973;43.742;1.236;2022-08-07T00:28:46;2.50;;;2.15;;
44276;SDS011;29973;43.742;1.236;2022-08-07T00:31:12;3.10;;;2.33;;
44276;SDS011;29973;43.742;1.236;2022-08-07T00:33:38;3.50;;;2.55;;
44276;SDS011;29973;43.742;1.236;2022-08-07T00:36:05;4.35;;;2.67;;
44276;SDS011;29973;43.742;1.236;2022-08-07T00:38:31;7.22;;;2.50;;
44276;SDS011;29973;43.742;1.236;2022-08-07T00:41:00;4.40;;;2.53;;
44276;SDS011;29973;43.742;1.236;2022-08-07T00:43:27;3.45;;;2.22;;
44276;SDS011;29973;43.742;1.236;2022-08-07T00:45:53;3.95;;;2.35;;
44276;SDS011;29973;43.742;1.236;2022-08-07T00:48:18;7.32;;;2.45;;
44276;SDS011;29973;43.742;1.236;2022-08-07T00:50:44;4.70;;;2.65;;
44276;SDS011;29973;43.742;1.236;2022-08-07T00:53:10;3.83;;;2.58;;
44276;SDS011;29973;43.742;1.236;2022-08-07T00:55:36;2.95;;;2.38;;
44276;SDS011;29973;43.742;1.236;2022-08-07T00:58:02;4.60;;;2.45;;
44276;SDS011;29973;43.742;1.236;2022-08-07T01:00:28;7.85;;;2.63;;
44276;SDS011;29973;43.742;1.236;2022-08-07T01:02:54;4.05;;;2.15;;
44276;SDS011;29973;43.742;1.236;2022-08-07T01:05:20;4.47;;;2.35;;
44276;SDS011;29973;43.742;1.236;2022-08-07T01:07:47;5.75;;;2.70;;
44276;SDS011;29973;43.742;1.236;2022-08-07T01:10:13;4.57;;;2.28;;
44276;SDS011;29973;43.742;1.236;2022-08-07T01:12:39;3.40;;;2.35;;
44276;SDS011;29973;43.742;1.236;2022-08-07T01:15:06;2.60;;;2.20;;
44276;SDS011;29973;43.742;1.236;2022-08-07T01:17:33;3.75;;;2.90;;
44276;SDS011;29973;43.742;1.236;2022-08-07T01:20:04;3.03;;;2.38;;
44276;SDS011;29973;43.742;1.236;2022-08-07T01:22:32;4.07;;;2.65;;
44276;SDS011;29973;43.742;1.236;2022-08-07T01:24:58;3.28;;;2.70;;
44276;SDS011;29973;43.742;1.236;2022-08-07T01:27:24;6.90;;;2.60;;
44276;SDS011;29973;43.742;1.236;2022-08-07T01:29:50;4.25;;;2.78;;
44276;SDS011;29973;43.742;1.236;2022-08-07T01:32:16;4.60;;;2.80;;
44276;SDS011;29973;43.742;1.236;2022-08-07T01:34:42;3.33;;;2.42;;
44276;SDS011;29973;43.742;1.236;2022-08-07T01:37:09;4.53;;;2.83;;
44276;SDS011;29973;43.742;1.236;2022-08-07T01:39:41;4.75;;;2.78;;
44276;SDS011;29973;43.742;1.236;2022-08-07T01:42:08;2.90;;;2.50;;
44276;SDS011;29973;43.742;1.236;2022-08-07T01:44:33;6.40;;;2.72;;
44276;SDS011;29973;43.742;1.236;2022-08-07T01:46:59;4.90;;;2.70;;
44276;SDS011;29973;43.742;1.236;2022-08-07T01:49:25;2.75;;;2.50;;
44276;SDS011;29973;43.742;1.236;2022-08-07T01:51:51;3.75;;;2.60;;
44276;SDS011;29973;43.742;1.236;2022-08-07T01:54:18;3.50;;;2.63;;
44276;SDS011;29973;43.742;1.236;2022-08-07T01:56:50;2.95;;;2.65;;
44276;SDS011;29973;43.742;1.236;2022-08-07T01:59:27;6.03;;;3.17;;
44276;SDS011;29973;43.742;1.236;2022-08-07T02:02:02;3.95;;;3.00;;
44276;SDS011;29973;43.742;1.236;2022-08-07T02:07:19;3.40;;;2.88;;
44276;SDS011;29973;43.742;1.236;2022-08-07T02:09:47;4.07;;;2.55;;
44276;SDS011;29973;43.742;1.236;2022-08-07T02:12:15;3.78;;;3.05;;
44276;SDS011;29973;43.742;1.236;2022-08-07T02:14:46;4.10;;;2.83;;
44276;SDS011;29973;43.742;1.236;2022-08-07T02:17:14;5.10;;;3.20;;
44276;SDS011;29973;43.742;1.236;2022-08-07T02:19:41;3.55;;;2.53;;
44276;SDS011;29973;43.742;1.236;2022-08-07T02:22:10;5.55;;;2.92;;
44276;SDS011;29973;43.742;1.236;2022-08-07T02:24:39;5.80;;;3.25;;
44276;SDS011;29973;43.742;1.236;2022-08-07T02:27:07;5.57;;;3.50;;
44276;SDS011;29973;43.742;1.236;2022-08-07T02:29:33;5.65;;;3.45;;
44276;SDS011;29973;43.742;1.236;2022-08-07T02:32:00;4.53;;;3.17;;
44276;SDS011;29973;43.742;1.236;2022-08-07T02:34:27;3.35;;;2.95;;
44276;SDS011;29973;43.742;1.236;2022-08-07T02:36:55;3.10;;;2.80;;
44276;SDS011;29973;43.742;1.236;2022-08-07T02:39:23;3.45;;;2.55;;
44276;SDS011;29973;43.742;1.236;2022-08-07T02:41:50;3.85;;;2.92;;
44276;SDS011;29973;43.742;1.236;2022-08-07T02:44:17;3.92;;;2.92;;
44276;SDS011;29973;43.742;1.236;2022-08-07T02:46:45;3.20;;;2.90;;
44276;SDS011;29973;43.742;1.236;2022-08-07T02:49:12;4.38;;;2.92;;
44276;SDS011;29973;43.742;1.236;2022-08-07T02:51:38;5.90;;;3.13;;
44276;SDS011;29973;43.742;1.236;2022-08-07T02:54:08;5.35;;;3.10;;
44276;SDS011;29973;43.742;1.236;2022-08-07T02:56:35;5.40;;;3.17;;
44276;SDS011;29973;43.742;1.236;2022-08-07T02:59:04;4.43;;;3.00;;
44276;SDS011;29973;43.742;1.236;2022-08-07T03:01:34;6.93;;;3.28;;
44276;SDS011;29973;43.742;1.236;2022-08-07T03:04:03;4.22;;;3.10;;
44276;SDS011;29973;43.742;1.236;2022-08-07T03:06:30;4.63;;;3.00;;
44276;SDS011;29973;43.742;1.236;2022-08-07T03:08:58;5.40;;;3.42;;
44276;SDS011;29973;43.742;1.236;2022-08-07T03:11:32;3.83;;;2.97;;
44276;SDS011;29973;43.742;1.236;2022-08-07T03:13:59;4.45;;;3.17;;
44276;SDS011;29973;43.742;1.236;2022-08-07T03:16:26;6.68;;;3.45;;
44276;SDS011;29973;43.742;1.236;2022-08-07T03:18:53;5.55;;;2.75;;
44276;SDS011;29973;43.742;1.236;2022-08-07T03:21:19;6.35;;;3.50;;
44276;SDS011;29973;43.742;1.236;2022-08-07T03:23:46;6.22;;;3.35;;
44276;SDS011;29973;43.742;1.236;2022-08-07T03:26:14;5.63;;;3.28;;
44276;SDS011;29973;43.742;1.236;2022-08-07T03:28:44;6.05;;;3.28;;
44276;SDS011;29973;43.742;1.236;2022-08-07T03:31:11;5.53;;;3.33;;
44276;SDS011;29973;43.742;1.236;2022-08-07T03:33:43;3.63;;;3.30;;
44276;SDS011;29973;43.742;1.236;2022-08-07T03:36:12;4.70;;;2.95;;
44276;SDS011;29973;43.742;1.236;2022-08-07T03:38:40;5.55;;;3.08;;
44276;SDS011;29973;43.742;1.236;2022-08-07T03:41:07;5.40;;;3.40;;
44276;SDS011;29973;43.742;1.236;2022-08-07T03:43:34;11.35;;;4.00;;
44276;SDS011;29973;43.742;1.236;2022-08-07T03:46:01;3.70;;;3.35;;
44276;SDS011;29973;43.742;1.236;2022-08-07T03:48:28;4.85;;;4.00;;
44276;SDS011;29973;43.742;1.236;2022-08-07T03:50:56;4.65;;;3.78;;
44276;SDS011;29973;43.742;1.236;2022-08-07T03:53:22;3.75;;;3.42;;
44276;SDS011;29973;43.742;1.236;2022-08-07T03:55:48;4.47;;;3.50;;
44276;SDS011;29973;43.742;1.236;2022-08-07T03:58:15;4.30;;;3.60;;
44276;SDS011;29973;43.742;1.236;2022-08-07T04:00:42;6.22;;;4.03;;
44276;SDS011;29973;43.742;1.236;2022-08-07T04:03:09;9.32;;;3.75;;
44276;SDS011;29973;43.742;1.236;2022-08-07T04:05:35;4.22;;;3.60;;
44276;SDS011;29973;43.742;1.236;2022-08-07T04:08:02;4.75;;;3.80;;
44276;SDS011;29973;43.742;1.236;2022-08-07T04:10:28;4.97;;;3.75;;
44276;SDS011;29973;43.742;1.236;2022-08-07T04:12:55;4.53;;;4.05;;
44276;SDS011;29973;43.742;1.236;2022-08-07T04:15:21;4.18;;;3.67;;
44276;SDS011;29973;43.742;1.236;2022-08-07T04:17:47;5.78;;;3.65;;
44276;SDS011;29973;43.742;1.236;2022-08-07T04:20:13;7.05;;;3.55;;
44276;SDS011;29973;43.742;1.236;2022-08-07T04:22:39;6.07;;;4.18;;
44276;SDS011;29973;43.742;1.236;2022-08-07T04:25:06;9.32;;;3.72;;
44276;SDS011;29973;43.742;1.236;2022-08-07T04:27:33;5.50;;;3.83;;
44276;SDS011;29973;43.742;1.236;2022-08-07T04:29:59;6.18;;;3.90;;
44276;SDS011;29973;43.742;1.236;2022-08-07T04:32:25;6.13;;;3.80;;
44276;SDS011;29973;43.742;1.236;2022-08-07T04:34:51;4.55;;;3.58;;
44276;SDS011;29973;43.742;1.236;2022-08-07T04:37:19;4.35;;;3.80;;
44276;SDS011;29973;43.742;1.236;2022-08-07T04:39:45;4.45;;;3.60;;
44276;SDS011;29973;43.742;1.236;2022-08-07T04:42:11;4.03;;;3.25;;
44276;SDS011;29973;43.742;1.236;2022-08-07T04:44:37;4.82;;;3.17;;
44276;SDS011;29973;43.742;1.236;2022-08-07T04:49:43;8.18;;;3.25;;
44276;SDS011;29973;43.742;1.236;2022-08-07T04:55:02;4.88;;;3.70;;
44276;SDS011;29973;43.742;1.236;2022-08-07T05:00:17;5.65;;;3.63;;
44276;SDS011;29973;43.742;1.236;2022-08-07T05:02:53;3.85;;;3.50;;
44276;SDS011;29973;43.742;1.236;2022-08-07T05:08:14;3.80;;;3.28;;
44276;SDS011;29973;43.742;1.236;2022-08-07T05:11:20;7.07;;;3.47;;
44276;SDS011;29973;43.742;1.236;2022-08-07T05:13:58;4.28;;;3.75;;
44276;SDS011;29973;43.742;1.236;2022-08-07T05:16:30;6.50;;;3.58;;
44276;SDS011;29973;43.742;1.236;2022-08-07T05:19:00;6.43;;;3.55;;
44276;SDS011;29973;43.742;1.236;2022-08-07T05:21:28;4.15;;;3.70;;
44276;SDS011;29973;43.742;1.236;2022-08-07T05:24:00;4.53;;;3.70;;
44276;SDS011;29973;43.742;1.236;2022-08-07T05:26:28;7.40;;;4.03;;
44276;SDS011;29973;43.742;1.236;2022-08-07T05:28:58;6.78;;;3.90;;
44276;SDS011;29973;43.742;1.236;2022-08-07T05:31:27;5.65;;;3.72;;
44276;SDS011;29973;43.742;1.236;2022-08-07T05:33:58;4.38;;;3.53;;
44276;SDS011;29973;43.742;1.236;2022-08-07T05:36:25;6.10;;;3.80;;
44276;SDS011;29973;43.742;1.236;2022-08-07T05:38:52;5.03;;;3.83;;
44276;SDS011;29973;43.742;1.236;2022-08-07T05:41:20;6.95;;;3.80;;
44276;SDS011;29973;43.742;1.236;2022-08-07T05:43:50;7.05;;;3.80;;
44276;SDS011;29973;43.742;1.236;2022-08-07T05:46:21;7.03;;;3.88;;
44276;SDS011;29973;43.742;1.236;2022-08-07T05:48:48;3.92;;;3.50;;
44276;SDS011;29973;43.742;1.236;2022-08-07T05:51:18;7.13;;;3.83;;
44276;SDS011;29973;43.742;1.236;2022-08-07T05:53:45;13.82;;;4.40;;
44276;SDS011;29973;43.742;1.236;2022-08-07T05:56:12;6.32;;;3.72;;
44276;SDS011;29973;43.742;1.236;2022-08-07T05:58:39;6.30;;;3.70;;
44276;SDS011;29973;43.742;1.236;2022-08-07T06:01:06;7.18;;;3.90;;
44276;SDS011;29973;43.742;1.236;2022-08-07T06:03:34;5.32;;;3.67;;
44276;SDS011;29973;43.742;1.236;2022-08-07T06:06:02;5.72;;;3.88;;
44276;SDS011;29973;43.742;1.236;2022-08-07T06:08:28;5.38;;;3.55;;
44276;SDS011;29973;43.742;1.236;2022-08-07T06:10:55;5.47;;;3.80;;
44276;SDS011;29973;43.742;1.236;2022-08-07T06:13:21;4.00;;;3.60;;
44276;SDS011;29973;43.742;1.236;2022-08-07T06:15:47;6.57;;;3.72;;
44276;SDS011;29973;43.742;1.236;2022-08-07T06:18:14;5.35;;;3.67;;
44276;SDS011;29973;43.742;1.236;2022-08-07T06:20:42;6.25;;;2.88;;
44276;SDS011;29973;43.742;1.236;2022-08-07T06:23:08;4.85;;;2.55;;
44276;SDS011;29973;43.742;1.236;2022-08-07T06:25:34;5.47;;;2.60;;
44276;SDS011;29973;43.742;1.236;2022-08-07T06:28:01;3.30;;;2.40;;
44276;SDS011;29973;43.742;1.236;2022-08-07T06:30:28;3.53;;;2.35;;
44276;SDS011;29973;43.742;1.236;2022-08-07T06:32:54;5.50;;;2.22;;
44276;SDS011;29973;43.742;1.236;2022-08-07T06:35:20;3.65;;;2.60;;
44276;SDS011;29973;43.742;1.236;2022-08-07T06:37:46;9.40;;;2.78;;
44276;SDS011;29973;43.742;1.236;2022-08-07T06:40:11;5.60;;;2.35;;
44276;SDS011;29973;43.742;1.236;2022-08-07T06:42:37;4.30;;;2.65;;
44276;SDS011;29973;43.742;1.236;2022-08-07T06:45:05;4.28;;;2.60;;
44276;SDS011;29973;43.742;1.236;2022-08-07T06:47:35;4.88;;;2.35;;
44276;SDS011;29973;43.742;1.236;2022-08-07T06:50:02;5.47;;;2.45;;
44276;SDS011;29973;43.742;1.236;2022-08-07T06:52:29;7.80;;;2.50;;
44276;SDS011;29973;43.742;1.236;2022-08-07T06:54:59;3.22;;;2.40;;
44276;SDS011;29973;43.742;1.236;2022-08-07T06:57:25;4.68;;;2.45;;
44276;SDS011;29973;43.742;1.236;2022-08-07T06:59:53;10.43;;;2.35;;
44276;SDS011;29973;43.742;1.236;2022-08-07T07:02:20;4.85;;;2.50;;
44276;SDS011;29973;43.742;1.236;2022-08-07T07:04:49;6.13;;;2.33;;
44276;SDS011;29973;43.742;1.236;2022-08-07T07:07:15;4.97;;;2.65;;
44276;SDS011;29973;43.742;1.236;2022-08-07T07:09:44;5.07;;;2.28;;
44276;SDS011;29973;43.742;1.236;2022-08-07T07:15:33;3.85;;;2.53;;
44276;SDS011;29973;43.742;1.236;2022-08-07T07:20:28;5.03;;;2.22;;
44276;SDS011;29973;43.742;1.236;2022-08-07T07:23:00;4.75;;;2.47;;
44276;SDS011;29973;43.742;1.236;2022-08-07T07:25:26;3.33;;;1.95;;
44276;SDS011;29973;43.742;1.236;2022-08-07T07:27:55;4.43;;;2.20;;
44276;SDS011;29973;43.742;1.236;2022-08-07T07:30:33;3.05;;;2.17;;
44276;SDS011;29973;43.742;1.236;2022-08-07T07:33:01;4.20;;;2.10;;
44276;SDS011;29973;43.742;1.236;2022-08-07T07:35:27;3.35;;;1.90;;
44276;SDS011;29973;43.742;1.236;2022-08-07T07:37:55;3.15;;;1.90;;
44276;SDS011;29973;43.742;1.236;2022-08-07T07:40:24;6.88;;;2.40;;
44276;SDS011;29973;43.742;1.236;2022-08-07T07:42:51;2.90;;;2.00;;
44276;SDS011;29973;43.742;1.236;2022-08-07T07:45:20;3.20;;;2.13;;
44276;SDS011;29973;43.742;1.236;2022-08-07T07:47:49;5.72;;;2.17;;
44276;SDS011;29973;43.742;1.236;2022-08-07T07:50:17;4.25;;;1.98;;
44276;SDS011;29973;43.742;1.236;2022-08-07T07:52:46;2.67;;;2.10;;
44276;SDS011;29973;43.742;1.236;2022-08-07T07:55:13;7.25;;;2.17;;
44276;SDS011;29973;43.742;1.236;2022-08-07T07:57:42;4.70;;;2.33;;
44276;SDS011;29973;43.742;1.236;2022-08-07T08:00:09;4.15;;;1.92;;
44276;SDS011;29973;43.742;1.236;2022-08-07T08:02:37;4.53;;;2.25;;
44276;SDS011;29973;43.742;1.236;2022-08-07T08:05:06;4.88;;;2.08;;
44276;SDS011;29973;43.742;1.236;2022-08-07T08:07:34;3.45;;;2.08;;
44276;SDS011;29973;43.742;1.236;2022-08-07T08:10:03;3.30;;;2.20;;
44276;SDS011;29973;43.742;1.236;2022-08-07T08:12:32;4.22;;;1.90;;
44276;SDS011;29973;43.742;1.236;2022-08-07T08:14:58;3.70;;;2.03;;
44276;SDS011;29973;43.742;1.236;2022-08-07T08:17:24;3.83;;;2.03;;
44276;SDS011;29973;43.742;1.236;2022-08-07T08:19:52;4.25;;;2.00;;
44276;SDS011;29973;43.742;1.236;2022-08-07T08:22:22;3.88;;;2.08;;
44276;SDS011;29973;43.742;1.236;2022-08-07T08:25:08;3.67;;;2.00;;
44276;SDS011;29973;43.742;1.236;2022-08-07T08:27:53;4.57;;;2.10;;
44276;SDS011;29973;43.742;1.236;2022-08-07T08:30:20;5.22;;;2.17;;
44276;SDS011;29973;43.742;1.236;2022-08-07T08:32:48;2.45;;;2.00;;
44276;SDS011;29973;43.742;1.236;2022-08-07T08:35:18;3.28;;;1.90;;
44276;SDS011;29973;43.742;1.236;2022-08-07T08:37:47;5.88;;;2.08;;
44276;SDS011;29973;43.742;1.236;2022-08-07T08:40:31;5.97;;;1.70;;
44276;SDS011;29973;43.742;1.236;2022-08-07T08:43:02;3.13;;;2.00;;
44276;SDS011;29973;43.742;1.236;2022-08-07T08:53:47;5.60;;;1.95;;
44276;SDS011;29973;43.742;1.236;2022-08-07T08:56:19;3.63;;;1.92;;
44276;SDS011;29973;43.742;1.236;2022-08-07T09:04:35;6.85;;;1.98;;
44276;SDS011;29973;43.742;1.236;2022-08-07T09:07:29;1.95;;;1.67;;
44276;SDS011;29973;43.742;1.236;2022-08-07T09:27:04;5.25;;;1.90;;
44276;SDS011;29973;43.742;1.236;2022-08-07T09:37:43;4.75;;;1.98;;
44276;SDS011;29973;43.742;1.236;2022-08-07T09:42:59;2.25;;;1.60;;
44276;SDS011;29973;43.742;1.236;2022-08-07T09:46:03;6.30;;;1.67;;
44276;SDS011;29973;43.742;1.236;2022-08-07T09:54:00;3.35;;;1.60;;
44276;SDS011;29973;43.742;1.236;2022-08-07T10:02:22;2.03;;;1.63;;
44276;SDS011;29973;43.742;1.236;2022-08-07T10:11:02;3.63;;;1.98;;
44276;SDS011;29973;43.742;1.236;2022-08-07T10:16:47;3.45;;;1.85;;
44276;SDS011;29973;43.742;1.236;2022-08-07T10:25:08;10.67;;;2.43;;
44276;SDS011;29973;43.742;1.236;2022-08-07T10:28:10;3.17;;;1.85;;
44276;SDS011;29973;43.742;1.236;2022-08-07T10:45:17;3.35;;;1.65;;
44276;SDS011;29973;43.742;1.236;2022-08-07T10:47:46;4.35;;;1.98;;
44276;SDS011;29973;43.742;1.236;2022-08-07T11:03:55;6.47;;;2.20;;
44276;SDS011;29973;43.742;1.236;2022-08-07T11:09:24;3.67;;;2.05;;
44276;SDS011;29973;43.742;1.236;2022-08-07T11:15:03;2.60;;;1.80;;
44276;SDS011;29973;43.742;1.236;2022-08-07T11:17:40;3.95;;;2.30;;
44276;SDS011;29973;43.742;1.236;2022-08-07T11:20:17;2.63;;;1.60;;
44276;SDS011;29973;43.742;1.236;2022-08-07T11:23:00;2.35;;;1.63;;
44276;SDS011;29973;43.742;1.236;2022-08-07T11:25:41;2.85;;;1.25;;
44276;SDS011;29973;43.742;1.236;2022-08-07T11:28:16;2.38;;;1.60;;
44276;SDS011;29973;43.742;1.236;2022-08-07T11:30:52;2.28;;;1.67;;
44276;SDS011;29973;43.742;1.236;2022-08-07T11:36:22;2.28;;;1.50;;
44276;SDS011;29973;43.742;1.236;2022-08-07T11:38:52;2.53;;;1.52;;
44276;SDS011;29973;43.742;1.236;2022-08-07T11:42:32;6.13;;;2.00;;
44276;SDS011;29973;43.742;1.236;2022-08-07T11:53:26;4.47;;;1.58;;
44276;SDS011;29973;43.742;1.236;2022-08-07T12:09:08;5.35;;;1.50;;
44276;SDS011;29973;43.742;1.236;2022-08-07T12:14:18;4.03;;;1.67;;
44276;SDS011;29973;43.742;1.236;2022-08-07T12:16:47;8.02;;;1.70;;
44276;SDS011;29973;43.742;1.236;2022-08-07T12:20:02;4.05;;;1.65;;
44276;SDS011;29973;43.742;1.236;2022-08-07T12:22:22;1.75;;;1.50;;
44276;SDS011;29973;43.742;1.236;2022-08-07T12:27:54;2.80;;;1.40;;
44276;SDS011;29973;43.742;1.236;2022-08-07T12:30:25;5.28;;;1.58;;
44276;SDS011;29973;43.742;1.236;2022-08-07T12:35:53;5.63;;;2.00;;
44276;SDS011;29973;43.742;1.236;2022-08-07T12:38:21;2.40;;;1.38;;
44276;SDS011;29973;43.742;1.236;2022-08-07T12:40:49;1.77;;;1.65;;
44276;SDS011;29973;43.742;1.236;2022-08-07T12:43:17;2.90;;;1.30;;
44276;SDS011;29973;43.742;1.236;2022-08-07T12:45:48;2.13;;;1.27;;
44276;SDS011;29973;43.742;1.236;2022-08-07T12:51:16;1.50;;;1.23;;
44276;SDS011;29973;43.742;1.236;2022-08-07T12:53:51;3.55;;;1.20;;
44276;SDS011;29973;43.742;1.236;2022-08-07T12:56:44;4.45;;;1.38;;
44276;SDS011;29973;43.742;1.236;2022-08-07T12:59:21;3.15;;;1.73;;
44276;SDS011;29973;43.742;1.236;2022-08-07T13:15:49;2.78;;;1.40;;
44276;SDS011;29973;43.742;1.236;2022-08-07T13:20:44;5.50;;;1.50;;
44276;SDS011;29973;43.742;1.236;2022-08-07T13:23:16;1.80;;;1.23;;
44276;SDS011;29973;43.742;1.236;2022-08-07T13:25:55;3.75;;;1.80;;
44276;SDS011;29973;43.742;1.236;2022-08-07T13:28:27;3.53;;;1.55;;
44276;SDS011;29973;43.742;1.236;2022-08-07T13:31:02;2.20;;;1.38;;
44276;SDS011;29973;43.742;1.236;2022-08-07T13:36:00;3.63;;;1.63;;
44276;SDS011;29973;43.742;1.236;2022-08-07T13:39:06;10.20;;;1.42;;
44276;SDS011;29973;43.742;1.236;2022-08-07T13:41:29;2.03;;;1.83;;
44276;SDS011;29973;43.742;1.236;2022-08-07T13:44:03;1.88;;;1.08;;
44276;SDS011;29973;43.742;1.236;2022-08-07T13:46:32;4.63;;;1.73;;
44276;SDS011;29973;43.742;1.236;2022-08-07T13:49:02;2.30;;;1.48;;
44276;SDS011;29973;43.742;1.236;2022-08-07T13:51:30;1.98;;;1.30;;
44276;SDS011;29973;43.742;1.236;2022-08-07T13:54:02;2.40;;;1.20;;
44276;SDS011;29973;43.742;1.236;2022-08-07T13:56:33;2.35;;;1.25;;
44276;SDS011;29973;43.742;1.236;2022-08-07T13:59:01;2.08;;;1.30;;
44276;SDS011;29973;43.742;1.236;2022-08-07T14:01:33;4.57;;;1.33;;
44276;SDS011;29973;43.742;1.236;2022-08-07T14:04:08;1.45;;;1.20;;
44276;SDS011;29973;43.742;1.236;2022-08-07T14:09:04;3.22;;;1.60;;
44276;SDS011;29973;43.742;1.236;2022-08-07T14:11:35;3.53;;;1.55;;
44276;SDS011;29973;43.742;1.236;2022-08-07T14:14:17;1.27;;;1.17;;
44276;SDS011;29973;43.742;1.236;2022-08-07T14:16:47;2.17;;;1.50;;
44276;SDS011;29973;43.742;1.236;2022-08-07T14:22:01;2.30;;;1.35;;
44276;SDS011;29973;43.742;1.236;2022-08-07T14:27:07;1.90;;;1.30;;
44276;SDS011;29973;43.742;1.236;2022-08-07T14:29:36;2.90;;;1.48;;
44276;SDS011;29973;43.742;1.236;2022-08-07T14:32:07;2.58;;;1.33;;
44276;SDS011;29973;43.742;1.236;2022-08-07T14:34:38;4.55;;;1.27;;
44276;SDS011;29973;43.742;1.236;2022-08-07T14:37:09;1.70;;;1.58;;
44276;SDS011;29973;43.742;1.236;2022-08-07T14:39:40;3.78;;;1.45;;
44276;SDS011;29973;43.742;1.236;2022-08-07T14:42:08;4.65;;;2.42;;
44276;SDS011;29973;43.742;1.236;2022-08-07T14:44:37;2.03;;;1.30;;
44276;SDS011;29973;43.742;1.236;2022-08-07T14:47:09;2.72;;;1.38;;
44276;SDS011;29973;43.742;1.236;2022-08-07T14:49:37;2.53;;;1.33;;
44276;SDS011;29973;43.742;1.236;2022-08-07T14:52:04;3.60;;;1.33;;
44276;SDS011;29973;43.742;1.236;2022-08-07T14:54:33;3.33;;;1.50;;
44276;SDS011;29973;43.742;1.236;2022-08-07T14:57:00;2.35;;;1.45;;
44276;SDS011;29973;43.742;1.236;2022-08-07T14:59:30;3.10;;;1.40;;
44276;SDS011;29973;43.742;1.236;2022-08-07T15:02:20;2.72;;;1.27;;
44276;SDS011;29973;43.742;1.236;2022-08-07T15:04:47;5.18;;;1.63;;
44276;SDS011;29973;43.742;1.236;2022-08-07T15:07:21;1.92;;;1.58;;
44276;SDS011;29973;43.742;1.236;2022-08-07T15:09:48;2.03;;;1.20;;
44276;SDS011;29973;43.742;1.236;2022-08-07T15:12:28;2.30;;;1.50;;
44276;SDS011;29973;43.742;1.236;2022-08-07T15:15:08;3.40;;;1.60;;
44276;SDS011;29973;43.742;1.236;2022-08-07T15:17:43;1.50;;;1.38;;
44276;SDS011;29973;43.742;1.236;2022-08-07T15:20:16;2.33;;;1.50;;
44276;SDS011;29973;43.742;1.236;2022-08-07T15:22:49;1.55;;;1.35;;
44276;SDS011;29973;43.742;1.236;2022-08-07T15:25:37;2.95;;;1.42;;
44276;SDS011;29973;43.742;1.236;2022-08-07T15:28:05;3.85;;;1.35;;
44276;SDS011;29973;43.742;1.236;2022-08-07T15:30:32;4.05;;;1.30;;
44276;SDS011;29973;43.742;1.236;2022-08-07T15:33:00;2.13;;;1.27;;
44276;SDS011;29973;43.742;1.236;2022-08-07T15:35:28;4.13;;;1.40;;
44276;SDS011;29973;43.742;1.236;2022-08-07T15:37:57;2.00;;;1.20;;
44276;SDS011;29973;43.742;1.236;2022-08-07T15:40:28;2.90;;;1.45;;
44276;SDS011;29973;43.742;1.236;2022-08-07T15:45:29;1.55;;;1.30;;
44276;SDS011;29973;43.742;1.236;2022-08-07T15:50:43;1.40;;;1.30;;
44276;SDS011;29973;43.742;1.236;2022-08-07T15:55:52;4.13;;;1.35;;
44276;SDS011;29973;43.742;1.236;2022-08-07T15:58:22;10.13;;;1.80;;
44276;SDS011;29973;43.742;1.236;2022-08-07T16:01:11;1.50;;;1.20;;
44276;SDS011;29973;43.742;1.236;2022-08-07T16:03:42;3.97;;;1.40;;
44276;SDS011;29973;43.742;1.236;2022-08-07T16:06:12;2.47;;;1.10;;
44276;SDS011;29973;43.742;1.236;2022-08-07T16:08:41;1.55;;;1.10;;
44276;SDS011;29973;43.742;1.236;2022-08-07T16:11:12;5.50;;;1.23;;
44276;SDS011;29973;43.742;1.236;2022-08-07T16:17:01;3.85;;;1.50;;
44276;SDS011;29973;43.742;1.236;2022-08-07T16:22:49;2.35;;;1.30;;
44276;SDS011;29973;43.742;1.236;2022-08-07T16:30:53;2.15;;;1.40;;
44276;SDS011;29973;43.742;1.236;2022-08-07T16:33:40;3.70;;;1.20;;
44276;SDS011;29973;43.742;1.236;2022-08-07T16:39:11;1.48;;;1.00;;
44276;SDS011;29973;43.742;1.236;2022-08-07T16:45:15;3.60;;;1.23;;
44276;SDS011;29973;43.742;1.236;2022-08-07T16:48:17;1.38;;;1.00;;
44276;SDS011;29973;43.742;1.236;2022-08-07T16:50:48;1.88;;;1.05;;
44276;SDS011;29973;43.742;1.236;2022-08-07T17:05:27;3.38;;;1.23;;
44276;SDS011;29973;43.742;1.236;2022-08-07T17:08:09;4.03;;;1.15;;
44276;SDS011;29973;43.742;1.236;2022-08-07T17:10:44;3.17;;;1.20;;
44276;SDS011;29973;43.742;1.236;2022-08-07T17:21:25;2.20;;;1.20;;
44276;SDS011;29973;43.742;1.236;2022-08-07T17:24:15;2.75;;;1.02;;
44276;SDS011;29973;43.742;1.236;2022-08-07T17:26:58;1.55;;;1.15;;
44276;SDS011;29973;43.742;1.236;2022-08-07T17:29:35;1.20;;;0.93;;
44276;SDS011;29973;43.742;1.236;2022-08-07T17:32:18;2.38;;;0.90;;
44276;SDS011;29973;43.742;1.236;2022-08-07T17:35:09;1.13;;;0.90;;
44276;SDS011;29973;43.742;1.236;2022-08-07T17:38:07;2.20;;;0.98;;
44276;SDS011;29973;43.742;1.236;2022-08-07T17:43:32;3.58;;;1.40;;
44276;SDS011;29973;43.742;1.236;2022-08-07T17:46:14;2.85;;;1.20;;
44276;SDS011;29973;43.742;1.236;2022-08-07T17:49:03;3.78;;;0.80;;
44276;SDS011;29973;43.742;1.236;2022-08-07T17:54:49;2.58;;;0.90;;
44276;SDS011;29973;43.742;1.236;2022-08-07T17:57:29;1.27;;;0.93;;
44276;SDS011;29973;43.742;1.236;2022-08-07T18:00:08;23.33;;;1.30;;
44276;SDS011;29973;43.742;1.236;2022-08-07T18:02:53;2.17;;;1.00;;
44276;SDS011;29973;43.742;1.236;2022-08-07T18:05:33;2.42;;;1.00;;
44276;SDS011;29973;43.742;1.236;2022-08-07T18:08:12;2.85;;;1.10;;
44276;SDS011;29973;43.742;1.236;2022-08-07T18:10:48;2.13;;;1.00;;
44276;SDS011;29973;43.742;1.236;2022-08-07T18:13:19;1.92;;;1.25;;
44276;SDS011;29973;43.742;1.236;2022-08-07T18:16:13;2.25;;;0.82;;
44276;SDS011;29973;43.742;1.236;2022-08-07T18:18:51;2.67;;;1.10;;
44276;SDS011;29973;43.742;1.236;2022-08-07T18:21:25;2.72;;;1.02;;
44276;SDS011;29973;43.742;1.236;2022-08-07T18:29:59;4.50;;;1.30;;
44276;SDS011;29973;43.742;1.236;2022-08-07T18:32:35;1.50;;;0.90;;
44276;SDS011;29973;43.742;1.236;2022-08-07T18:35:21;3.30;;;1.00;;
44276;SDS011;29973;43.742;1.236;2022-08-07T18:48:52;1.65;;;1.00;;
44276;SDS011;29973;43.742;1.236;2022-08-07T18:51:36;1.50;;;0.85;;
44276;SDS011;29973;43.742;1.236;2022-08-07T18:54:24;1.13;;;0.90;;
44276;SDS011;29973;43.742;1.236;2022-08-07T19:00:18;4.78;;;1.25;;
44276;SDS011;29973;43.742;1.236;2022-08-07T19:02:53;2.15;;;1.25;;
44276;SDS011;29973;43.742;1.236;2022-08-07T19:08:06;3.30;;;1.20;;
44276;SDS011;29973;43.742;1.236;2022-08-07T19:10:38;2.88;;;1.30;;
44276;SDS011;29973;43.742;1.236;2022-08-07T19:16:35;2.42;;;1.10;;
44276;SDS011;29973;43.742;1.236;2022-08-07T19:21:36;1.73;;;0.98;;
44276;SDS011;29973;43.742;1.236;2022-08-07T19:24:03;2.75;;;0.93;;
44276;SDS011;29973;43.742;1.236;2022-08-07T19:26:35;6.20;;;1.33;;
44276;SDS011;29973;43.742;1.236;2022-08-07T19:29:06;5.43;;;1.42;;
44276;SDS011;29973;43.742;1.236;2022-08-07T19:31:36;6.40;;;1.40;;
44276;SDS011;29973;43.742;1.236;2022-08-07T19:34:11;8.57;;;1.38;;
44276;SDS011;29973;43.742;1.236;2022-08-07T19:36:40;4.30;;;1.50;;
44276;SDS011;29973;43.742;1.236;2022-08-07T19:39:10;8.80;;;1.40;;